Time;durP1;ratioP1;P1;durP2;ratioP2;P2;SDS_P1;SDS_P2;PMS_P1;PMS_P2;Temp;Humidity;BMP_temperature;BMP_pressure;BME280_temperature;BME280_humidity;BME280_pressure;Samples;Min_cycle;Max_cycle;Signal;HPM_P1;HPM_P2
2023/03/19 00:01:52;;;;;;;4.55;2.67;;;11.40;99.90;;;;;;5052467;28;20037;-38
2023/03/19 00:04:17;;;;;;;3.20;1.80;;;11.40;99.90;;;;;;5052207;28;20079;-35
2023/03/19 00:06:43;;;;;;;3.42;2.08;;;11.40;99.90;;;;;;5050886;28;20068;-38
2023/03/19 00:09:09;;;;;;;3.25;2.10;;;11.50;99.90;;;;;;5050980;28;20036;-38
2023/03/19 00:11:35;;;;;;;3.03;1.80;;;11.40;99.90;;;;;;5050849;28;20042;-39
2023/03/19 00:14:00;;;;;;;3.53;2.20;;;11.40;99.90;;;;;;5051886;28;20021;-39
2023/03/19 00:16:26;;;;;;;3.22;2.10;;;11.40;99.90;;;;;;5053378;28;20545;-38
2023/03/19 00:18:52;;;;;;;3.95;2.38;;;11.40;99.90;;;;;;5050037;28;20112;-35
2023/03/19 00:21:18;;;;;;;3.80;2.38;;;11.40;99.90;;;;;;5052091;28;20505;-35
2023/03/19 00:23:43;;;;;;;3.30;2.00;;;11.40;99.90;;;;;;5051910;28;20041;-39
2023/03/19 00:26:09;;;;;;;4.60;2.15;;;11.40;99.90;;;;;;5052163;28;20029;-39
2023/03/19 00:28:36;;;;;;;5.65;2.25;;;11.40;99.90;;;;;;5052220;28;20082;-38
2023/03/19 00:31:15;;;;;;;3.25;2.10;;;11.40;99.90;;;;;;5051966;28;20044;-38
2023/03/19 00:33:42;;;;;;;3.75;2.00;;;11.40;99.90;;;;;;5053789;28;20090;-35
2023/03/19 00:36:09;;;;;;;3.42;2.17;;;11.40;99.90;;;;;;5056668;28;20021;-37
2023/03/19 00:38:36;;;;;;;3.92;2.10;;;11.40;99.90;;;;;;5055843;28;20498;-39
2023/03/19 00:41:04;;;;;;;3.85;2.30;;;11.40;99.90;;;;;;5055226;28;20035;-35
2023/03/19 00:43:29;;;;;;;3.53;2.17;;;11.40;99.90;;;;;;5055989;28;20028;-39
2023/03/19 00:45:55;;;;;;;4.43;2.42;;;11.40;99.90;;;;;;5056998;28;20025;-39
2023/03/19 00:48:21;;;;;;;7.50;2.40;;;11.40;99.90;;;;;;5055617;28;20056;-37
2023/03/19 00:50:47;;;;;;;2.97;1.92;;;11.40;99.90;;;;;;5056039;28;20052;-38
2023/03/19 00:53:12;;;;;;;3.75;2.30;;;11.40;99.90;;;;;;5056029;28;20146;-39
2023/03/19 00:55:39;;;;;;;2.35;1.70;;;11.40;99.90;;;;;;5055730;28;20043;-35
2023/03/19 00:58:05;;;;;;;4.47;2.20;;;11.40;99.90;;;;;;5055228;28;20021;-37
2023/03/19 01:00:32;;;;;;;3.45;2.28;;;11.40;99.90;;;;;;5055709;28;20115;-36
2023/03/19 01:02:58;;;;;;;3.58;2.13;;;11.40;99.90;;;;;;5055547;28;20021;-38
2023/03/19 01:05:25;;;;;;;3.72;2.05;;;11.40;99.90;;;;;;5054466;28;20082;-35
2023/03/19 01:07:50;;;;;;;4.00;2.10;;;11.40;99.90;;;;;;5054332;28;20029;-39
2023/03/19 01:10:18;;;;;;;3.33;2.40;;;11.40;99.90;;;;;;5054420;28;20028;-36
2023/03/19 01:12:44;;;;;;;3.03;1.90;;;11.40;99.90;;;;;;5056013;28;20036;-35
2023/03/19 01:15:10;;;;;;;4.55;1.98;;;11.40;99.90;;;;;;5054817;28;20013;-35
2023/03/19 01:17:36;;;;;;;3.35;1.90;;;11.40;99.90;;;;;;5054351;28;20100;-39
2023/03/19 01:20:03;;;;;;;3.00;2.00;;;11.40;99.90;;;;;;5055228;28;20148;-36
2023/03/19 01:22:29;;;;;;;4.00;2.33;;;11.40;99.90;;;;;;5054945;28;20067;-35
2023/03/19 01:24:54;;;;;;;3.63;2.22;;;11.40;99.90;;;;;;5054693;28;20025;-38
2023/03/19 01:27:21;;;;;;;4.15;2.30;;;11.40;99.90;;;;;;5055161;28;20032;-37
2023/03/19 01:29:46;;;;;;;3.63;2.25;;;11.40;99.90;;;;;;5054564;28;20067;-35
2023/03/19 01:32:12;;;;;;;3.75;2.30;;;11.40;99.90;;;;;;5054733;28;20036;-36
2023/03/19 01:34:38;;;;;;;2.85;1.95;;;11.30;99.90;;;;;;5055973;28;20471;-39
2023/03/19 01:37:04;;;;;;;3.38;1.92;;;11.30;99.90;;;;;;5054278;28;20036;-35
2023/03/19 01:39:29;;;;;;;3.33;2.40;;;11.30;99.90;;;;;;5055374;28;20044;-35
2023/03/19 01:41:59;;;;;;;4.43;2.05;;;11.30;99.90;;;;;;5054818;28;20474;-35
2023/03/19 01:44:44;;;;;;;5.95;2.15;;;11.30;99.90;;;;;;5054481;28;20024;-35
2023/03/19 01:47:14;;;;;;;;;;;11.30;99.90;;;;;;5054251;28;20491;-35
2023/03/19 01:49:40;;;;;;;3.30;2.00;;;11.30;99.90;;;;;;5055134;28;19909;-38
2023/03/19 01:52:07;;;;;;;4.15;1.98;;;11.40;99.90;;;;;;5053179;28;20051;-38
2023/03/19 01:54:34;;;;;;;4.05;1.95;;;11.30;99.90;;;;;;5055233;28;20078;-38
2023/03/19 01:57:08;;;;;;;5.32;2.05;;;11.30;99.90;;;;;;5054457;28;20029;-39
2023/03/19 01:59:46;;;;;;;3.45;1.90;;;11.30;99.90;;;;;;5053695;28;20036;-35
2023/03/19 02:02:24;;;;;;;3.28;2.10;;;11.30;99.90;;;;;;5052910;28;20037;-39
2023/03/19 02:04:55;;;;;;;4.38;1.92;;;11.30;99.90;;;;;;5052950;28;20035;-40
2023/03/19 02:07:21;;;;;;;4.15;2.00;;;11.30;99.90;;;;;;5054404;28;20025;-40
2023/03/19 02:09:47;;;;;;;4.20;2.20;;;11.30;99.90;;;;;;5056258;28;20089;-37
2023/03/19 02:12:14;;;;;;;4.18;2.35;;;11.30;99.90;;;;;;5055523;28;20072;-39
2023/03/19 02:14:40;;;;;;;4.32;2.00;;;11.30;99.90;;;;;;5053984;28;20065;-39
2023/03/19 02:17:07;;;;;;;3.22;1.80;;;11.30;99.90;;;;;;5054582;28;20538;-35
2023/03/19 02:19:56;;;;;;;3.72;1.85;;;11.30;99.90;;;;;;5054175;28;20028;-35
2023/03/19 02:22:24;;;;;;;3.38;2.20;;;11.30;99.90;;;;;;5054073;28;20017;-40
2023/03/19 02:24:56;;;;;;;3.72;2.20;;;11.30;99.90;;;;;;5054641;28;20094;-39
2023/03/19 02:27:22;;;;;;;3.60;2.00;;;11.30;99.90;;;;;;5054676;28;20021;-38
2023/03/19 02:29:48;;;;;;;4.43;2.20;;;11.30;99.90;;;;;;5053393;28;20442;-36
2023/03/19 02:32:14;;;;;;;4.10;2.28;;;11.30;99.90;;;;;;5053835;28;20025;-35
2023/03/19 02:34:42;;;;;;;5.60;2.10;;;11.30;99.90;;;;;;5053049;28;20446;-35
2023/03/19 02:37:23;;;;;;;4.05;2.20;;;11.30;99.90;;;;;;5052584;28;20032;-38
2023/03/19 02:40:02;;;;;;;3.97;2.40;;;11.30;99.90;;;;;;5053029;28;20091;-36
2023/03/19 02:42:29;;;;;;;4.80;2.17;;;11.30;99.90;;;;;;5052554;28;20100;-35
2023/03/19 02:44:55;;;;;;;3.42;1.90;;;11.30;99.90;;;;;;5055537;28;20029;-35
2023/03/19 02:47:21;;;;;;;3.55;1.83;;;11.30;99.90;;;;;;5053507;28;20522;-36
2023/03/19 02:49:47;;;;;;;3.22;2.00;;;11.30;99.90;;;;;;5054630;28;20502;-36
2023/03/19 02:52:13;;;;;;;2.67;1.98;;;11.30;99.90;;;;;;5052879;28;20024;-37
2023/03/19 02:54:39;;;;;;;4.18;2.38;;;11.30;99.90;;;;;;5053627;28;20022;-37
2023/03/19 02:57:05;;;;;;;4.78;2.50;;;11.30;99.90;;;;;;5052763;28;20024;-37
2023/03/19 02:59:31;;;;;;;3.35;1.83;;;11.30;99.90;;;;;;5054123;28;20066;-37
2023/03/19 03:01:57;;;;;;;3.40;2.10;;;11.30;99.90;;;;;;5051923;28;20115;-38
2023/03/19 03:04:23;;;;;;;2.80;1.85;;;11.30;99.90;;;;;;5053472;28;20384;-37
2023/03/19 03:06:48;;;;;;;4.03;1.90;;;11.30;99.90;;;;;;5052649;28;20032;-39
2023/03/19 03:09:14;;;;;;;3.08;1.92;;;11.30;99.90;;;;;;5053490;28;20033;-35
2023/03/19 03:11:40;;;;;;;3.47;2.05;;;11.30;99.90;;;;;;5052551;28;20032;-39
2023/03/19 03:14:07;;;;;;;3.70;2.15;;;11.30;99.90;;;;;;5052167;28;20036;-38
2023/03/19 03:16:32;;;;;;;2.60;1.88;;;11.30;99.90;;;;;;5052895;28;20036;-39
2023/03/19 03:18:58;;;;;;;3.13;1.98;;;11.30;99.90;;;;;;5052955;28;20429;-35
2023/03/19 03:21:25;;;;;;;5.20;2.10;;;11.30;99.90;;;;;;5052844;28;20402;-35
2023/03/19 03:23:51;;;;;;;3.00;1.70;;;11.30;99.90;;;;;;5052706;28;20032;-38
2023/03/19 03:26:17;;;;;;;3.67;2.28;;;11.30;99.90;;;;;;5052089;28;20398;-37
2023/03/19 03:28:42;;;;;;;3.83;2.00;;;11.30;99.90;;;;;;5053516;28;20025;-39
2023/03/19 03:31:08;;;;;;;4.18;2.17;;;11.30;99.90;;;;;;5052974;28;20028;-39
2023/03/19 03:33:35;;;;;;;2.97;1.90;;;11.30;99.90;;;;;;5052081;28;20029;-36
2023/03/19 03:36:00;;;;;;;2.75;1.85;;;11.30;99.90;;;;;;5052565;28;20490;-35
2023/03/19 03:38:26;;;;;;;2.72;1.70;;;11.30;99.90;;;;;;5052198;28;20032;-39
2023/03/19 03:40:53;;;;;;;2.83;1.85;;;11.30;99.90;;;;;;5052114;28;20053;-36
2023/03/19 03:43:20;;;;;;;2.88;1.90;;;11.30;99.90;;;;;;5053087;28;20104;-38
2023/03/19 03:45:47;;;;;;;3.30;1.88;;;11.30;99.90;;;;;;5051285;28;20108;-38
2023/03/19 03:48:13;;;;;;;2.95;2.13;;;11.30;99.90;;;;;;5051063;28;20040;-41
2023/03/19 03:50:39;;;;;;;5.10;2.20;;;11.30;99.90;;;;;;5052254;28;20518;-36
2023/03/19 03:53:05;;;;;;;3.45;1.77;;;11.30;99.90;;;;;;5052013;28;20056;-36
2023/03/19 03:55:31;;;;;;;2.97;2.08;;;11.30;99.90;;;;;;5052291;28;20383;-38
2023/03/19 03:57:57;;;;;;;3.67;2.03;;;11.30;99.90;;;;;;5052917;28;20048;-37
2023/03/19 04:00:24;;;;;;;3.28;2.17;;;11.20;99.90;;;;;;5052737;28;20041;-39
2023/03/19 04:02:50;;;;;;;3.60;1.80;;;11.30;99.90;;;;;;5051823;28;20044;-36
2023/03/19 04:05:16;;;;;;;3.92;1.60;;;11.30;99.90;;;;;;5051917;28;20117;-37
2023/03/19 04:07:42;;;;;;;4.22;2.10;;;11.30;99.90;;;;;;5051511;28;20112;-37
2023/03/19 04:10:10;;;;;;;4.38;2.13;;;11.30;99.90;;;;;;5054917;28;20025;-37
2023/03/19 04:12:37;;;;;;;3.20;1.95;;;11.30;99.90;;;;;;5053736;28;20521;-35
2023/03/19 04:15:07;;;;;;;3.75;2.10;;;11.30;99.90;;;;;;5055069;28;20025;-35
2023/03/19 04:17:34;;;;;;;2.78;2.05;;;11.30;99.90;;;;;;5056289;28;20386;-35
2023/03/19 04:20:01;;;;;;;3.67;1.50;;;11.30;99.90;;;;;;5056193;28;20025;-38
2023/03/19 04:22:27;;;;;;;3.17;1.88;;;11.30;99.90;;;;;;5056872;28;20021;-38
2023/03/19 04:24:53;;;;;;;4.10;1.80;;;11.30;99.90;;;;;;5056358;28;20033;-36
2023/03/19 04:27:19;;;;;;;6.13;2.10;;;11.30;99.90;;;;;;5055289;28;20025;-39
2023/03/19 04:29:45;;;;;;;2.92;1.50;;;11.30;99.90;;;;;;5056293;28;20017;-38
2023/03/19 04:32:11;;;;;;;3.60;1.70;;;11.30;99.90;;;;;;5056286;28;20112;-37
2023/03/19 04:34:36;;;;;;;3.05;1.80;;;11.30;99.90;;;;;;5055663;28;20100;-36
2023/03/19 04:37:03;;;;;;;4.57;1.65;;;11.20;99.90;;;;;;5055217;28;20491;-37
2023/03/19 04:39:28;;;;;;;2.50;1.83;;;11.30;99.90;;;;;;5055088;28;20034;-35
2023/03/19 04:41:54;;;;;;;2.30;1.50;;;11.30;99.90;;;;;;5055953;28;20029;-37
2023/03/19 04:44:20;;;;;;;3.13;2.08;;;11.30;99.90;;;;;;5055949;28;20029;-35
2023/03/19 04:46:46;;;;;;;3.25;2.08;;;11.30;99.90;;;;;;5055800;28;20493;-39
2023/03/19 04:49:12;;;;;;;3.10;1.90;;;11.30;99.90;;;;;;5054606;28;20021;-38
2023/03/19 04:51:38;;;;;;;3.40;2.00;;;11.30;99.90;;;;;;5054106;28;20037;-35
2023/03/19 04:54:04;;;;;;;2.95;1.73;;;11.30;99.90;;;;;;5056229;28;20150;-39
2023/03/19 04:56:30;;;;;;;2.63;1.80;;;11.30;99.90;;;;;;5054326;28;20052;-39
2023/03/19 04:58:56;;;;;;;3.42;1.77;;;11.20;99.90;;;;;;5054306;28;20387;-39
2023/03/19 05:01:22;;;;;;;3.13;1.90;;;11.20;99.90;;;;;;5053427;28;20047;-40
2023/03/19 05:03:47;;;;;;;2.95;1.70;;;11.30;99.90;;;;;;5052956;28;20055;-39
2023/03/19 05:06:13;;;;;;;3.35;1.83;;;11.20;99.90;;;;;;5052676;28;20435;-40
2023/03/19 05:08:39;;;;;;;3.28;2.05;;;11.20;99.90;;;;;;5053024;28;20107;-39
2023/03/19 05:11:04;;;;;;;2.63;1.65;;;11.20;99.90;;;;;;5052746;28;20395;-39
2023/03/19 05:13:30;;;;;;;3.20;2.00;;;11.20;99.90;;;;;;5053078;28;20025;-38
2023/03/19 05:15:56;;;;;;;3.25;1.83;;;11.20;99.90;;;;;;5052444;28;20037;-42
2023/03/19 05:18:22;;;;;;;3.70;1.75;;;11.30;99.90;;;;;;5052776;28;20634;-40
2023/03/19 05:20:48;;;;;;;2.50;1.60;;;11.30;99.90;;;;;;5052303;28;20029;-40
2023/03/19 05:23:14;;;;;;;2.58;1.80;;;11.30;99.90;;;;;;5052628;28;20086;-39
2023/03/19 05:25:40;;;;;;;2.92;1.80;;;11.20;99.90;;;;;;5052563;28;20029;-39
2023/03/19 05:28:07;;;;;;;2.40;1.55;;;11.30;99.90;;;;;;5052426;28;20035;-39
2023/03/19 05:30:33;;;;;;;3.35;1.80;;;11.20;99.90;;;;;;5052299;28;20108;-39
2023/03/19 05:32:59;;;;;;;2.33;1.70;;;11.30;99.90;;;;;;5052440;28;20017;-39
2023/03/19 05:35:28;;;;;;;2.80;1.67;;;11.20;99.90;;;;;;5052631;28;20017;-39
2023/03/19 05:37:54;;;;;;;3.30;1.50;;;11.20;99.90;;;;;;5052270;28;20029;-39
2023/03/19 05:40:21;;;;;;;3.05;1.83;;;11.30;99.90;;;;;;5052513;28;20017;-40
2023/03/19 05:42:46;;;;;;;2.17;1.63;;;11.20;99.90;;;;;;5052305;28;20036;-39
2023/03/19 05:45:12;;;;;;;2.25;1.50;;;11.20;99.90;;;;;;5052207;28;20479;-39
2023/03/19 05:47:38;;;;;;;2.63;1.60;;;11.20;99.90;;;;;;5052284;28;20029;-39
2023/03/19 05:50:05;;;;;;;3.40;1.92;;;11.20;99.90;;;;;;5052141;28;20037;-41
2023/03/19 05:52:31;;;;;;;3.70;1.63;;;11.20;99.90;;;;;;5052034;28;20028;-41
2023/03/19 05:54:57;;;;;;;2.50;1.70;;;11.20;99.90;;;;;;5052545;28;20037;-38
2023/03/19 05:57:23;;;;;;;2.83;1.90;;;11.30;99.90;;;;;;5052084;28;20028;-40
2023/03/19 05:59:49;;;;;;;3.13;1.50;;;11.30;99.90;;;;;;5053581;28;20025;-40
2023/03/19 06:02:15;;;;;;;2.83;1.70;;;11.20;99.90;;;;;;5011457;28;1258756;-37
2023/03/19 06:04:40;;;;;;;3.28;1.90;;;11.20;99.90;;;;;;5055036;28;20028;-35
2023/03/19 06:07:06;;;;;;;2.42;1.60;;;11.30;99.90;;;;;;5054641;28;20060;-38
2023/03/19 06:09:32;;;;;;;2.50;1.50;;;11.20;99.90;;;;;;5053855;28;20037;-37
2023/03/19 06:11:58;;;;;;;3.97;1.60;;;11.20;99.90;;;;;;5053672;28;20111;-36
2023/03/19 06:14:24;;;;;;;2.10;1.70;;;11.30;99.90;;;;;;5054645;28;20027;-39
2023/03/19 06:16:49;;;;;;;2.95;1.90;;;11.20;99.90;;;;;;5053113;28;20028;-35
2023/03/19 06:19:15;;;;;;;2.42;1.40;;;11.20;99.90;;;;;;5053151;28;20025;-35
2023/03/19 06:21:40;;;;;;;2.63;1.90;;;11.30;99.90;;;;;;5054018;28;20021;-37
2023/03/19 06:24:06;;;;;;;2.17;1.60;;;11.30;99.90;;;;;;5053317;28;20073;-39
2023/03/19 06:26:33;;;;;;;2.75;1.80;;;11.30;99.90;;;;;;5053688;28;20074;-35
2023/03/19 06:28:58;;;;;;;2.95;1.80;;;11.20;99.90;;;;;;5053485;28;20106;-38
2023/03/19 06:31:24;;;;;;;2.75;1.50;;;11.20;99.90;;;;;;5051652;28;20032;-36
2023/03/19 06:33:50;;;;;;;2.33;1.60;;;11.20;99.90;;;;;;5054030;28;20025;-35
2023/03/19 06:36:16;;;;;;;3.38;1.83;;;11.20;99.90;;;;;;5052226;28;20021;-38
2023/03/19 06:38:42;;;;;;;2.88;1.52;;;11.20;99.90;;;;;;5052972;28;20096;-38
2023/03/19 06:41:07;;;;;;;2.05;1.70;;;11.20;99.90;;;;;;5053470;28;20103;-35
2023/03/19 06:43:35;;;;;;;2.58;1.60;;;11.20;99.90;;;;;;5054003;28;20021;-35
2023/03/19 06:46:03;;;;;;;4.15;1.70;;;11.20;99.90;;;;;;5052081;28;20028;-35
2023/03/19 06:48:29;;;;;;;2.72;1.63;;;11.20;99.90;;;;;;5052859;28;20029;-36
2023/03/19 06:50:54;;;;;;;2.38;1.60;;;11.20;99.90;;;;;;5053829;28;20036;-39
2023/03/19 06:53:20;;;;;;;2.75;1.60;;;11.20;99.90;;;;;;5052794;28;20394;-36
2023/03/19 06:55:46;;;;;;;2.28;1.63;;;11.20;99.90;;;;;;5053734;28;20036;-35
2023/03/19 06:58:11;;;;;;;2.78;1.55;;;11.20;99.90;;;;;;5052579;28;20386;-39
2023/03/19 07:00:37;;;;;;;2.60;1.50;;;11.20;99.90;;;;;;5052230;28;20084;-35
2023/03/19 07:03:03;;;;;;;1.90;1.30;;;11.20;99.90;;;;;;5054804;28;20116;-35
2023/03/19 07:05:28;;;;;;;2.35;1.90;;;11.20;99.90;;;;;;5053172;28;20031;-38
2023/03/19 07:07:54;;;;;;;3.05;1.73;;;11.20;99.90;;;;;;5052519;28;20035;-40
2023/03/19 07:10:20;;;;;;;2.03;1.27;;;11.20;99.90;;;;;;5052627;28;20471;-35
2023/03/19 07:12:47;;;;;;;3.25;1.83;;;11.20;99.90;;;;;;5052357;28;20029;-37
2023/03/19 07:15:13;;;;;;;2.15;1.58;;;11.30;99.90;;;;;;5052729;28;20471;-40
2023/03/19 07:17:38;;;;;;;2.15;1.55;;;11.20;99.90;;;;;;5053232;28;20028;-40
2023/03/19 07:20:05;;;;;;;2.22;1.60;;;11.20;99.90;;;;;;5052734;28;20028;-35
2023/03/19 07:22:31;;;;;;;3.20;1.60;;;11.20;99.90;;;;;;5051406;28;20025;-38
2023/03/19 07:24:57;;;;;;;3.17;1.80;;;11.20;99.90;;;;;;5051590;28;20126;-38
2023/03/19 07:27:22;;;;;;;2.13;1.50;;;11.20;99.90;;;;;;5051460;28;20102;-35
2023/03/19 07:29:48;;;;;;;2.45;1.30;;;11.30;99.90;;;;;;5052037;28;20167;-39
2023/03/19 07:32:14;;;;;;;2.38;1.40;;;11.20;99.90;;;;;;5053247;28;20028;-35
2023/03/19 07:34:40;;;;;;;2.92;1.70;;;11.30;99.90;;;;;;5053013;28;20103;-38
2023/03/19 07:37:06;;;;;;;3.17;1.48;;;11.30;99.90;;;;;;5052367;28;20155;-38
2023/03/19 07:39:32;;;;;;;2.85;1.65;;;11.20;99.90;;;;;;5051606;28;20501;-38
2023/03/19 07:41:58;;;;;;;2.45;1.60;;;11.20;99.90;;;;;;5052846;28;20021;-35
2023/03/19 07:44:24;;;;;;;2.33;1.27;;;11.20;99.90;;;;;;5051322;28;20032;-40
2023/03/19 07:46:49;;;;;;;2.63;1.50;;;11.20;99.90;;;;;;5051414;28;20025;-38
2023/03/19 07:49:15;;;;;;;2.95;1.73;;;11.20;99.90;;;;;;5051998;28;20022;-38
2023/03/19 07:51:41;;;;;;;2.35;1.60;;;11.30;99.90;;;;;;5052087;28;20025;-38
2023/03/19 07:54:06;;;;;;;2.30;1.60;;;11.30;99.90;;;;;;5052091;28;20025;-35
2023/03/19 07:56:32;;;;;;;2.95;1.50;;;11.30;99.90;;;;;;5052697;28;20021;-35
2023/03/19 07:58:58;;;;;;;2.60;1.60;;;11.30;99.90;;;;;;5052064;28;20056;-38
2023/03/19 08:01:24;;;;;;;3.17;1.38;;;11.20;99.90;;;;;;5050986;28;20041;-35
2023/03/19 08:03:50;;;;;;;1.63;1.25;;;11.20;99.90;;;;;;5052465;28;20025;-38
2023/03/19 08:06:16;;;;;;;2.40;1.50;;;11.20;99.90;;;;;;5051160;28;20025;-35
2023/03/19 08:08:41;;;;;;;3.58;1.30;;;11.20;99.90;;;;;;5051033;28;20024;-38
2023/03/19 08:11:07;;;;;;;2.83;1.35;;;11.20;99.90;;;;;;5051756;28;20029;-37
2023/03/19 08:13:33;;;;;;;2.05;1.30;;;11.30;99.90;;;;;;5052541;28;20032;-39
2023/03/19 08:15:59;;;;;;;2.53;1.60;;;11.20;99.90;;;;;;5052410;28;20349;-35
2023/03/19 08:18:25;;;;;;;2.67;1.63;;;11.30;99.90;;;;;;5052263;28;20052;-35
2023/03/19 08:20:51;;;;;;;3.33;1.52;;;11.30;99.90;;;;;;5050820;28;20025;-41
2023/03/19 08:23:17;;;;;;;2.00;1.30;;;11.20;99.90;;;;;;5052095;28;20087;-35
2023/03/19 08:25:42;;;;;;;1.80;1.30;;;11.20;99.90;;;;;;5053285;28;20083;-39
2023/03/19 08:28:11;;;;;;;2.30;1.55;;;11.20;99.90;;;;;;5051801;28;20029;-42
2023/03/19 08:30:37;;;;;;;2.58;1.50;;;11.30;99.90;;;;;;5050940;28;20025;-38
2023/03/19 08:33:03;;;;;;;2.20;1.40;;;11.30;99.90;;;;;;5052112;28;20059;-39
2023/03/19 08:35:29;;;;;;;2.63;1.50;;;11.20;99.90;;;;;;5052111;28;20048;-35
2023/03/19 08:37:55;;;;;;;1.90;1.50;;;11.30;99.90;;;;;;5052640;28;20033;-36
2023/03/19 08:40:22;;;;;;;2.30;1.60;;;11.20;99.90;;;;;;5051924;28;20395;-39
2023/03/19 08:42:47;;;;;;;2.45;1.45;;;11.20;99.90;;;;;;5051688;28;20032;-40
2023/03/19 08:45:15;;;;;;;4.53;1.60;;;11.20;99.90;;;;;;5053232;28;20119;-35
2023/03/19 08:47:41;;;;;;;2.35;1.40;;;11.20;99.90;;;;;;5052206;28;20542;-36
2023/03/19 08:50:08;;;;;;;3.35;1.70;;;11.20;99.90;;;;;;5049302;28;20037;-36
2023/03/19 08:52:34;;;;;;;2.38;1.50;;;11.20;99.90;;;;;;5050894;28;20040;-35
2023/03/19 08:55:00;;;;;;;2.58;1.58;;;11.20;99.90;;;;;;5053701;28;20017;-38
2023/03/19 08:57:26;;;;;;;2.13;1.48;;;11.20;99.90;;;;;;5055957;28;20021;-40
2023/03/19 08:59:52;;;;;;;1.63;1.20;;;11.20;99.90;;;;;;5055157;28;20029;-38
2023/03/19 09:02:17;;;;;;;1.98;1.30;;;11.20;99.90;;;;;;5055656;28;20040;-35
2023/03/19 09:04:44;;;;;;;3.30;1.70;;;11.30;99.90;;;;;;5055716;28;20108;-39
2023/03/19 09:07:17;;;;;;;2.08;1.30;;;11.20;99.90;;;;;;5055938;28;20021;-38
2023/03/19 09:09:44;;;;;;;2.08;1.48;;;11.20;99.90;;;;;;5055034;28;20035;-38
2023/03/19 09:12:13;;;;;;;2.15;1.33;;;11.30;99.90;;;;;;5055914;28;20025;-38
2023/03/19 09:14:39;;;;;;;1.90;1.30;;;11.30;99.90;;;;;;5056510;28;20025;-40
2023/03/19 09:17:06;;;;;;;1.77;1.33;;;11.30;99.90;;;;;;5054083;28;20025;-39
2023/03/19 09:19:32;;;;;;;2.10;1.40;;;11.30;99.90;;;;;;5054798;28;20028;-38
2023/03/19 09:21:58;;;;;;;2.20;1.40;;;11.30;99.90;;;;;;5055726;28;20047;-37
2023/03/19 09:24:25;;;;;;;2.80;1.38;;;11.30;99.90;;;;;;5054779;28;20091;-35
2023/03/19 09:26:51;;;;;;;2.95;1.77;;;11.30;99.90;;;;;;5053820;28;20507;-38
2023/03/19 09:29:17;;;;;;;2.22;1.35;;;11.30;99.90;;;;;;5054763;28;20037;-35
2023/03/19 09:31:42;;;;;;;2.75;1.58;;;11.30;99.90;;;;;;5053691;28;20025;-38
2023/03/19 09:34:08;;;;;;;2.10;1.30;;;11.30;99.90;;;;;;5054650;28;20489;-36
2023/03/19 09:36:35;;;;;;;2.85;1.30;;;11.40;99.90;;;;;;5054147;28;20029;-35
2023/03/19 09:39:01;;;;;;;1.73;1.17;;;11.40;99.90;;;;;;5054559;28;20488;-42
2023/03/19 09:41:30;;;;;;;2.47;1.17;;;11.40;99.90;;;;;;5054632;28;20028;-39
2023/03/19 09:44:20;;;;;;;2.28;1.30;;;11.40;99.90;;;;;;5054640;28;20025;-35
2023/03/19 09:46:58;;;;;;;1.92;1.20;;;11.40;99.90;;;;;;5053484;28;20025;-36
2023/03/19 09:49:31;;;;;;;3.15;1.52;;;11.40;99.90;;;;;;5054249;28;20094;-35
2023/03/19 09:52:15;;;;;;;2.70;1.45;;;11.40;99.90;;;;;;5054569;28;20064;-37
2023/03/19 09:54:47;;;;;;;2.10;1.15;;;11.40;99.90;;;;;;5054209;28;20378;-35
2023/03/19 09:57:13;;;;;;;2.42;1.42;;;11.40;99.90;;;;;;5054373;28;20394;-38
2023/03/19 09:59:39;;;;;;;2.45;1.52;;;11.50;99.90;;;;;;5053071;28;20017;-35
2023/03/19 10:02:30;;;;;;;2.97;1.38;;;11.50;99.90;;;;;;5054464;28;20102;-35
2023/03/19 10:05:22;;;;;;;1.52;1.27;;;11.50;99.90;;;;;;5054421;28;20051;-36
2023/03/19 10:08:08;;;;;;;2.00;1.15;;;11.50;99.90;;;;;;5052997;28;20068;-35
2023/03/19 10:10:37;;;;;;;3.50;1.50;;;11.50;99.90;;;;;;5053111;28;20024;-40
2023/03/19 10:13:46;;;;;;;2.22;1.25;;;11.50;99.90;;;;;;5053190;28;20024;-39
2023/03/19 10:16:20;;;;;;;2.30;1.60;;;11.50;99.90;;;;;;5053429;28;20052;-37
2023/03/19 10:18:51;;;;;;;3.63;1.27;;;11.50;99.90;;;;;;5053387;28;20641;-35
2023/03/19 10:21:52;;;;;;;2.95;1.30;;;11.60;99.90;;;;;;5054021;28;20069;-35
2023/03/19 10:24:23;;;;;;;3.05;1.30;;;11.50;99.90;;;;;;5050041;28;20044;-36
2023/03/19 10:26:57;;;;;;;2.42;1.40;;;11.60;99.90;;;;;;5053912;28;20025;-35
2023/03/19 10:29:23;;;;;;;2.70;1.60;;;11.60;99.90;;;;;;5053523;28;20032;-38
2023/03/19 10:32:08;;;;;;;2.95;1.58;;;11.60;99.90;;;;;;5053394;28;20032;-35
2023/03/19 10:34:36;;;;;;;2.80;1.60;;;11.60;99.90;;;;;;5053404;28;20960;-35
2023/03/19 10:37:12;;;;;;;2.20;1.25;;;11.60;99.90;;;;;;5052535;28;20096;-35
2023/03/19 10:39:41;;;;;;;2.00;1.25;;;11.60;99.90;;;;;;5053002;28;20329;-35
2023/03/19 10:42:44;;;;;;;2.25;1.40;;;11.70;99.90;;;;;;5052896;28;20063;-37
2023/03/19 10:45:30;;;;;;;2.38;1.40;;;11.70;99.90;;;;;;5052859;28;20025;-35
2023/03/19 10:47:56;;;;;;;2.28;1.42;;;11.70;99.90;;;;;;5052341;28;20439;-39
2023/03/19 10:50:33;;;;;;;2.33;1.33;;;11.70;99.90;;;;;;5052620;28;20063;-35
2023/03/19 10:53:25;;;;;;;2.70;1.30;;;11.70;99.90;;;;;;5053138;28;20028;-39
2023/03/19 10:55:58;;;;;;;2.13;1.35;;;11.70;99.90;;;;;;5048958;28;20029;-35
2023/03/19 10:58:26;;;;;;;2.38;1.60;;;11.70;99.90;;;;;;5052189;28;20044;-35
2023/03/19 11:01:07;;;;;;;2.50;1.52;;;11.70;99.90;;;;;;5051912;28;20033;-37
2023/03/19 11:03:37;;;;;;;3.17;1.35;;;11.70;99.90;;;;;;5052471;28;20025;-39
2023/03/19 11:06:16;;;;;;;1.83;1.33;;;11.70;99.90;;;;;;5052121;28;20029;-40
2023/03/19 11:08:46;;;;;;;2.20;1.40;;;11.70;99.90;;;;;;5051934;28;20486;-39
2023/03/19 11:11:31;;;;;;;1.88;1.13;;;11.70;99.90;;;;;;5052346;28;20021;-37
2023/03/19 11:13:57;;;;;;;1.67;1.17;;;11.70;99.90;;;;;;5052774;28;20021;-35
2023/03/19 11:16:23;;;;;;;2.58;1.27;;;11.70;99.90;;;;;;5051702;28;20021;-35
2023/03/19 11:18:49;;;;;;;3.72;1.45;;;11.70;99.90;;;;;;5052082;28;20032;-35
2023/03/19 11:21:24;;;;;;;2.33;1.50;;;11.70;99.90;;;;;;5052169;28;20056;-37
2023/03/19 11:24:00;;;;;;;2.67;1.23;;;11.70;99.90;;;;;;5051931;28;20108;-38
2023/03/19 11:26:27;;;;;;;2.20;1.40;;;11.70;99.90;;;;;;5052206;28;20483;-37
2023/03/19 11:28:54;;;;;;;2.10;1.30;;;11.70;99.90;;;;;;5052081;28;20461;-35
2023/03/19 11:31:36;;;;;;;2.22;1.30;;;11.70;99.90;;;;;;5051826;28;20025;-38
2023/03/19 11:34:29;;;;;;;2.45;1.10;;;11.70;99.90;;;;;;5051784;28;20070;-35
2023/03/19 11:37:27;;;;;;;2.40;1.25;;;11.80;99.90;;;;;;5051632;28;20060;-38
2023/03/19 11:40:09;;;;;;;1.98;1.23;;;11.80;99.90;;;;;;5051394;28;20586;-39
2023/03/19 11:42:55;;;;;;;1.90;1.20;;;11.80;99.90;;;;;;5051343;28;20394;-41
2023/03/19 11:45:21;;;;;;;2.20;1.20;;;11.80;99.90;;;;;;5051391;28;20029;-37
2023/03/19 11:48:04;;;;;;;1.88;1.23;;;11.70;99.90;;;;;;5051046;28;20024;-35
2023/03/19 11:50:52;;;;;;;1.90;1.30;;;11.80;99.90;;;;;;5051556;28;20036;-35
2023/03/19 11:53:35;;;;;;;2.97;1.58;;;11.80;99.90;;;;;;5051763;28;20029;-35
2023/03/19 11:56:39;;;;;;;2.08;1.48;;;11.80;99.90;;;;;;5051365;28;20075;-35
2023/03/19 11:59:08;;;;;;;2.17;1.20;;;11.80;99.90;;;;;;5051756;28;20052;-35
2023/03/19 12:01:58;;;;;;;2.03;1.38;;;11.80;99.90;;;;;;5051131;28;20052;-35
2023/03/19 12:04:57;;;;;;;2.03;1.10;;;11.80;99.90;;;;;;5050980;28;20025;-38
2023/03/19 12:07:50;;;;;;;2.38;1.33;;;11.80;99.90;;;;;;5051557;28;20120;-38
2023/03/19 12:10:43;;;;;;;2.10;1.27;;;11.80;99.90;;;;;;5051637;28;20435;-35
2023/03/19 12:13:14;;;;;;;1.75;1.30;;;11.80;99.90;;;;;;5051752;28;20021;-35
2023/03/19 12:15:58;;;;;;;2.28;1.30;;;11.70;99.90;;;;;;5051394;28;20029;-37
2023/03/19 12:18:59;;;;;;;1.67;1.17;;;11.70;99.90;;;;;;5051861;28;20017;-39
2023/03/19 12:21:28;;;;;;;3.03;1.20;;;11.70;99.90;;;;;;5052099;28;20045;-38
2023/03/19 12:24:05;;;;;;;1.90;1.23;;;11.80;99.90;;;;;;5050917;28;20040;-39
2023/03/19 12:26:57;;;;;;;1.90;1.20;;;11.70;99.90;;;;;;5050731;28;20508;-35
2023/03/19 12:29:26;;;;;;;2.67;1.30;;;11.70;99.90;;;;;;5051996;28;20075;-38
2023/03/19 12:32:37;;;;;;;2.45;1.20;;;11.70;99.90;;;;;;5055422;28;20025;-35
2023/03/19 12:35:30;;;;;;;3.88;1.50;;;11.70;99.90;;;;;;5054896;28;20049;-41
2023/03/19 12:38:03;;;;;;;2.83;1.30;;;11.80;99.90;;;;;;5055107;28;20067;-38
2023/03/19 12:40:56;;;;;;;3.03;1.60;;;11.80;99.90;;;;;;5054863;28;20021;-35
2023/03/19 12:43:29;;;;;;;1.85;1.30;;;11.80;99.90;;;;;;5055684;28;20029;-35
2023/03/19 12:46:09;;;;;;;2.72;1.40;;;11.80;99.90;;;;;;5055249;28;20029;-35
2023/03/19 12:48:55;;;;;;;4.00;1.48;;;11.80;99.90;;;;;;5055484;28;20113;-37
2023/03/19 12:51:31;;;;;;;3.97;1.60;;;11.80;99.90;;;;;;5054851;28;20478;-38
2023/03/19 12:54:13;;;;;;;1.95;1.25;;;11.80;99.90;;;;;;5055315;28;20036;-38
2023/03/19 12:56:55;;;;;;;3.17;1.38;;;11.80;99.90;;;;;;5054525;28;20146;-39
2023/03/19 12:59:43;;;;;;;2.15;1.08;;;11.80;99.90;;;;;;5054721;28;20097;-35
2023/03/19 13:02:18;;;;;;;2.83;1.60;;;11.80;99.90;;;;;;5055274;28;20487;-36